Time;durP1;ratioP1;P1;durP2;ratioP2;P2;SDS_P1;SDS_P2;PMS_P1;PMS_P2;Temp;Humidity;BMP_temperature;BMP_pressure;BME280_temperature;BME280_humidity;BME280_pressure;Samples;Min_cycle;Max_cycle;Signal;HPM_P1;HPM_P2
2022/05/20 04:01:58;;;;;;;11.27;10.07;;;17.20;99.90;;;;;;5343281;23;20277;-73
2022/05/20 04:04:27;;;;;;;11.73;8.53;;;17.20;99.90;;;;;;4965760;28;20452;-73
2022/05/20 04:06:54;;;;;;;16.77;10.37;;;17.20;99.90;;;;;;4966292;28;20456;-73
2022/05/20 04:09:21;;;;;;;13.30;10.30;;;17.20;99.90;;;;;;4966462;28;20456;-73
2022/05/20 04:11:52;;;;;;;13.37;9.67;;;17.20;99.90;;;;;;4966615;28;20480;-73
2022/05/20 04:14:19;;;;;;;13.97;10.27;;;17.20;99.90;;;;;;4965695;28;20456;-73
2022/05/20 04:16:45;;;;;;;13.33;10.27;;;17.30;99.90;;;;;;4966558;28;20456;-73
2022/05/20 04:19:14;;;;;;;11.27;9.90;;;17.20;99.90;;;;;;4966822;28;20503;-73
2022/05/20 04:21:41;;;;;;;13.40;10.07;;;17.20;99.90;;;;;;4966721;28;20491;-73
2022/05/20 04:24:08;;;;;;;14.30;10.53;;;17.20;99.90;;;;;;4969378;28;20460;-73
2022/05/20 04:26:35;;;;;;;12.50;10.57;;;17.20;99.90;;;;;;4970332;28;20464;-73
2022/05/20 04:29:02;;;;;;;14.93;11.63;;;17.20;99.90;;;;;;4970059;28;20933;-73
2022/05/20 04:31:29;;;;;;;16.63;12.50;;;17.20;99.90;;;;;;4969891;28;20543;-73
2022/05/20 04:33:56;;;;;;;16.23;12.10;;;17.20;99.90;;;;;;4969821;28;20547;-73
2022/05/20 04:36:24;;;;;;;13.87;11.63;;;17.20;99.90;;;;;;4969769;28;20471;-73
2022/05/20 04:38:51;;;;;;;14.27;11.63;;;17.20;99.90;;;;;;4968884;28;20497;-73
2022/05/20 04:46:58;;;;;;;16.20;12.43;;;17.20;99.90;;;;;;4970482;28;20443;-77
2022/05/20 04:49:25;;;;;;;13.83;12.03;;;17.20;99.90;;;;;;4968166;28;20501;-65
2022/05/20 04:51:54;;;;;;;15.57;12.63;;;17.20;99.90;;;;;;4968936;28;20619;-65
2022/05/20 04:57:07;;;;;;;16.00;11.77;;;17.30;99.90;;;;;;4968687;28;20568;-65
2022/05/20 04:59:38;;;;;;;14.93;12.30;;;17.30;99.90;;;;;;4968326;28;20489;-66
2022/05/20 05:02:07;;;;;;;13.60;11.60;;;17.30;99.90;;;;;;4968345;28;20496;-66
2022/05/20 05:04:34;;;;;;;14.43;11.33;;;17.30;99.90;;;;;;4967929;28;20456;-66
2022/05/20 05:07:02;;;;;;;18.87;12.00;;;17.30;99.90;;;;;;4968425;28;20464;-66
2022/05/20 05:09:29;;;;;;;14.60;11.50;;;17.30;99.90;;;;;;4968647;28;20552;-66
2022/05/20 05:11:56;;;;;;;13.20;11.03;;;17.30;99.90;;;;;;4968438;28;20491;-66
2022/05/20 05:14:23;;;;;;;15.10;11.33;;;17.40;99.90;;;;;;4968454;28;20464;-78
2022/05/20 05:16:49;;;;;;;15.50;10.80;;;17.40;99.90;;;;;;4971359;28;20473;-76
2022/05/20 05:19:16;;;;;;;13.50;10.73;;;17.40;99.90;;;;;;4972019;28;21027;-77
2022/05/20 05:21:43;;;;;;;11.67;10.43;;;17.40;99.90;;;;;;4971487;28;20567;-78
2022/05/20 05:24:12;;;;;;;12.97;10.60;;;17.50;99.90;;;;;;4970662;28;21407;-78
2022/05/20 05:26:40;;;;;;;11.90;10.23;;;17.50;99.90;;;;;;4971670;28;20568;-76
2022/05/20 05:29:07;;;;;;;13.53;10.00;;;17.50;99.90;;;;;;4972482;28;20517;-77
2022/05/20 05:31:34;;;;;;;15.20;9.70;;;17.50;99.90;;;;;;4971332;28;20511;-79
2022/05/20 05:34:01;;;;;;;11.83;10.27;;;17.50;99.90;;;;;;4970223;28;21263;-77
2022/05/20 05:36:28;;;;;;;18.13;10.80;;;17.60;99.90;;;;;;4971131;28;20475;-77
2022/05/20 05:38:55;;;;;;;17.00;13.20;;;17.60;99.90;;;;;;4970587;28;20489;-78
2022/05/20 05:41:23;;;;;;;14.40;12.90;;;17.60;99.90;;;;;;4970539;28;21293;-77
2022/05/20 05:43:50;;;;;;;15.40;12.10;;;17.60;99.90;;;;;;4969889;28;20460;-76
2022/05/20 05:46:17;;;;;;;15.50;11.20;;;17.70;99.90;;;;;;4970167;28;20604;-77
2022/05/20 05:48:44;;;;;;;14.17;11.90;;;17.70;99.90;;;;;;4969669;28;20543;-77
2022/05/20 05:51:11;;;;;;;20.53;14.93;;;17.70;99.90;;;;;;4970605;28;20853;-77
2022/05/20 05:53:38;;;;;;;16.80;13.20;;;17.80;99.90;;;;;;4970750;28;20460;-77
2022/05/20 05:56:09;;;;;;;15.87;12.70;;;17.80;99.90;;;;;;4971451;28;20524;-77
2022/05/20 05:58:37;;;;;;;16.57;14.17;;;17.80;99.90;;;;;;4971227;28;20500;-77
2022/05/20 06:01:05;;;;;;;20.90;13.10;;;17.80;99.90;;;;;;4971047;28;20992;-78
2022/05/20 06:03:32;;;;;;;17.50;13.17;;;17.90;99.90;;;;;;4971531;28;20559;-77
2022/05/20 06:05:59;;;;;;;18.23;14.20;;;17.90;99.90;;;;;;4971048;28;20456;-78
2022/05/20 06:08:26;;;;;;;15.43;12.13;;;18.00;99.90;;;;;;4971372;28;20816;-78
2022/05/20 06:10:53;;;;;;;15.40;13.80;;;18.00;99.90;;;;;;4971473;28;20583;-77
2022/05/20 06:13:24;;;;;;;17.70;13.30;;;18.10;99.90;;;;;;4970936;28;20461;-78
2022/05/20 06:15:55;;;;;;;21.13;15.00;;;18.10;99.90;;;;;;4969970;28;20483;-78
2022/05/20 06:18:22;;;;;;;17.47;13.93;;;18.10;99.90;;;;;;4970228;28;20500;-76
2022/05/20 06:20:49;;;;;;;18.63;13.90;;;18.20;99.90;;;;;;4970392;28;20492;-77
2022/05/20 06:23:17;;;;;;;17.13;14.93;;;18.20;99.90;;;;;;4969168;28;20552;-77
2022/05/20 06:25:43;;;;;;;19.20;14.90;;;18.30;99.90;;;;;;4969749;28;20563;-77
2022/05/20 06:28:13;;;;;;;15.37;13.80;;;18.40;99.90;;;;;;4969018;28;20464;-76
2022/05/20 06:30:41;;;;;;;17.67;14.30;;;18.40;99.90;;;;;;4968956;28;20864;-76
2022/05/20 06:33:10;;;;;;;15.73;13.40;;;18.50;99.90;;;;;;4968982;28;20839;-77
2022/05/20 06:41:07;;;;;;;17.77;12.30;;;18.60;99.90;;;;;;4969003;28;20464;-76
2022/05/20 06:43:34;;;;;;;18.23;13.17;;;18.70;99.90;;;;;;4969056;28;20468;-77
2022/05/20 06:46:04;;;;;;;13.37;11.97;;;18.70;99.90;;;;;;4968249;28;21094;-76
2022/05/20 06:48:45;;;;;;;13.33;11.93;;;18.90;99.90;;;;;;4968860;28;21016;-77
2022/05/20 06:51:13;;;;;;;17.20;13.30;;;18.90;99.90;;;;;;4969356;28;20480;-76
2022/05/20 06:53:40;;;;;;;16.73;12.67;;;19.00;99.90;;;;;;4968756;28;20467;-77
2022/05/20 06:56:22;;;;;;;13.93;12.43;;;19.10;99.90;;;;;;4968208;28;20466;-77
2022/05/20 06:58:49;;;;;;;12.63;9.70;;;19.20;99.90;;;;;;4969560;28;21087;-77
2022/05/20 07:01:17;;;;;;;13.27;8.80;;;19.20;99.90;;;;;;4968910;28;20499;-77
2022/05/20 07:03:45;;;;;;;11.40;8.80;;;19.30;99.90;;;;;;4969223;28;20551;-77
2022/05/20 07:06:14;;;;;;;12.50;9.47;;;19.30;99.90;;;;;;4968389;28;20465;-77
2022/05/20 07:08:43;;;;;;;16.50;9.80;;;19.40;99.90;;;;;;4968639;28;21027;-77
2022/05/20 07:11:10;;;;;;;11.93;10.20;;;19.60;99.90;;;;;;4969036;28;20523;-76
2022/05/20 07:13:36;;;;;;;10.43;9.43;;;19.60;99.90;;;;;;4967969;28;20460;-77
2022/05/20 07:16:04;;;;;;;13.07;10.47;;;19.80;99.90;;;;;;4966908;28;20471;-77
2022/05/20 07:18:32;;;;;;;10.90;9.30;;;19.80;99.90;;;;;;4969147;28;20523;-76
2022/05/20 07:21:00;;;;;;;11.93;7.80;;;19.90;99.90;;;;;;4968618;28;21023;-77
2022/05/20 07:23:29;;;;;;;10.07;7.57;;;20.00;99.90;;;;;;4968660;28;20482;-77
2022/05/20 07:26:00;;;;;;;10.47;7.10;;;20.00;99.90;;;;;;4966301;28;20464;-77
2022/05/20 07:28:39;;;;;;;9.77;8.00;;;20.10;99.90;;;;;;4969097;28;20449;-77
2022/05/20 07:31:06;;;;;;;16.00;8.50;;;20.20;99.90;;;;;;4969613;28;20496;-77
2022/05/20 07:33:33;;;;;;;11.83;8.70;;;20.20;99.90;;;;;;4970110;28;20452;-77
2022/05/20 07:36:02;;;;;;;10.30;9.20;;;20.30;99.90;;;;;;4969353;28;20470;-76
2022/05/20 07:38:29;;;;;;;8.43;7.63;;;20.40;99.90;;;;;;4970243;28;20897;-77
2022/05/20 07:40:57;;;;;;;8.63;7.73;;;20.50;99.90;;;;;;4970804;28;20496;-77
2022/05/20 07:43:26;;;;;;;13.97;8.30;;;20.50;99.90;;;;;;4970491;28;20826;-77
2022/05/20 07:45:54;;;;;;;11.13;8.47;;;20.60;99.90;;;;;;4968870;28;20467;-77
2022/05/20 07:48:21;;;;;;;13.73;8.43;;;20.80;99.90;;;;;;4969691;28;20478;-77
2022/05/20 07:50:54;;;;;;;9.10;8.13;;;20.80;99.90;;;;;;4971178;28;20504;-77
2022/05/20 07:53:33;;;;;;;9.00;8.00;;;20.90;99.90;;;;;;4971585;28;20487;-77
2022/05/20 07:56:04;;;;;;;10.53;8.27;;;21.10;99.90;;;;;;4971929;28;20464;-77
2022/05/20 07:58:34;;;;;;;10.20;7.30;;;21.10;99.90;;;;;;4976358;28;20892;-77
2022/05/20 08:01:03;;;;;;;12.47;6.67;;;21.10;99.90;;;;;;4975707;28;20516;-78
2022/05/20 08:06:17;;;;;;;9.93;7.10;;;21.50;99.90;;;;;;4971707;28;20439;-77
2022/05/20 08:08:45;;;;;;;7.57;5.50;;;21.50;99.90;;;;;;4978638;28;20455;-78
2022/05/20 08:11:12;;;;;;;11.27;5.73;;;21.50;99.90;;;;;;4976613;28;21419;-77
2022/05/20 08:13:39;;;;;;;11.03;6.60;;;21.60;99.90;;;;;;4971779;28;21149;-78
2022/05/20 08:16:06;;;;;;;8.53;6.37;;;21.70;99.90;;;;;;4960855;28;20460;-77
2022/05/20 08:18:33;;;;;;;8.60;5.80;;;21.80;99.90;;;;;;4971553;28;21379;-77
2022/05/20 08:21:00;;;;;;;8.83;5.50;;;21.90;99.90;;;;;;4971268;28;21460;-77
2022/05/20 08:23:27;;;;;;;7.00;6.30;;;21.90;99.90;;;;;;4972183;28;20460;-78
2022/05/20 08:25:56;;;;;;;7.13;5.93;;;22.00;99.90;;;;;;4971260;28;20996;-78
2022/05/20 08:28:23;;;;;;;9.00;5.70;;;22.10;99.90;;;;;;4973693;28;20527;-78
2022/05/20 08:30:50;;;;;;;9.17;6.30;;;22.20;99.90;;;;;;4973594;28;20487;-78
2022/05/20 08:33:17;;;;;;;7.67;5.50;;;22.20;99.90;;;;;;4979438;28;21246;-77
2022/05/20 08:35:44;;;;;;;5.60;5.10;;;22.30;99.90;;;;;;4992460;28;20945;-77
2022/05/20 08:38:11;;;;;;;7.20;6.00;;;22.50;99.90;;;;;;4978540;28;21029;-78
2022/05/20 08:40:42;;;;;;;8.30;5.90;;;22.70;99.90;;;;;;4973340;28;20583;-77
2022/05/20 08:43:11;;;;;;;9.50;6.43;;;22.80;99.90;;;;;;4973909;28;20456;-78
2022/05/20 08:45:39;;;;;;;7.07;6.03;;;22.80;99.90;;;;;;4972512;28;20465;-78
2022/05/20 08:48:09;;;;;;;14.10;6.40;;;23.00;99.90;;;;;;4983182;28;20484;-78
2022/05/20 08:50:40;;;;;;;10.17;5.70;;;23.10;99.90;;;;;;4973729;28;20535;-77
2022/05/20 08:53:14;;;;;;;9.70;6.10;;;23.10;99.90;;;;;;4973008;28;20461;-77
2022/05/20 08:55:43;;;;;;;9.17;6.10;;;23.30;99.90;;;;;;4972622;28;20475;-78
2022/05/20 08:58:15;;;;;;;7.60;6.13;;;23.40;99.90;;;;;;4971331;28;20465;-79
2022/05/20 09:00:42;;;;;;;8.57;5.90;;;23.40;99.90;;;;;;4971707;28;20500;-78
2022/05/20 09:03:11;;;;;;;6.63;5.20;;;23.50;99.90;;;;;;4968545;28;20453;-68
2022/05/20 09:05:43;;;;;;;16.37;7.60;;;23.50;99.90;;;;;;4967108;28;20945;-66
2022/05/20 09:08:24;;;;;;;13.63;7.20;;;23.60;99.90;;;;;;4967514;28;20515;-67
2022/05/20 09:10:53;;;;;;;6.10;5.50;;;23.80;99.90;;;;;;4967081;28;20485;-66
2022/05/20 09:15:43;;;;;;;11.50;6.80;;;23.90;99.90;;;;;;4968028;28;20465;-66
2022/05/20 09:16:13;;;;;;;6.50;4.87;;;24.00;99.90;;;;;;4967590;28;20486;-66
2022/05/20 09:18:42;;;;;;;13.63;5.53;;;24.10;99.90;;;;;;4968661;28;20461;-66
2022/05/20 09:21:23;;;;;;;13.30;7.27;;;24.20;99.90;;;;;;4968317;28;20880;-66
2022/05/20 09:23:53;;;;;;;8.83;5.53;;;24.30;99.90;;;;;;4968025;28;20479;-67
2022/05/20 09:26:25;;;;;;;8.23;5.10;;;24.40;99.90;;;;;;4968525;28;20463;-67
2022/05/20 09:29:06;;;;;;;6.57;5.87;;;24.50;99.90;;;;;;4968570;28;20497;-67
2022/05/20 09:31:43;;;;;;;11.50;6.87;;;24.60;99.90;;;;;;4968463;28;20559;-67
2022/05/20 09:34:14;;;;;;;9.60;5.83;;;24.80;99.90;;;;;;4966278;28;20497;-67
2022/05/20 09:36:55;;;;;;;8.83;5.10;;;24.80;99.90;;;;;;4968701;28;20465;-67
2022/05/20 09:39:27;;;;;;;7.60;5.10;;;25.00;99.90;;;;;;4969049;28;20510;-66
2022/05/20 09:41:56;;;;;;;13.30;5.03;;;25.10;99.90;;;;;;4968855;28;20572;-67
2022/05/20 09:44:33;;;;;;;7.23;4.80;;;25.20;99.90;;;;;;4968219;28;20842;-67
2022/05/20 09:47:01;;;;;;;7.10;5.23;;;25.40;99.90;;;;;;4968763;28;20957;-67
2022/05/20 09:49:39;;;;;;;8.53;5.20;;;25.40;99.90;;;;;;4968842;28;20488;-67
2022/05/20 09:52:21;;;;;;;7.53;5.60;;;25.50;99.90;;;;;;4968591;28;20476;-67
2022/05/20 09:54:50;;;;;;;8.27;5.17;;;25.70;99.90;;;;;;4968180;28;20452;-67
2022/05/20 09:57:23;;;;;;;7.97;5.30;;;25.70;99.90;;;;;;4968316;28;20464;-67
2022/05/20 09:59:57;;;;;;;6.20;4.03;;;25.80;99.90;;;;;;4968505;28;20598;-67
2022/05/20 10:02:28;;;;;;;9.03;4.77;;;25.90;99.90;;;;;;4968141;28;20492;-67
2022/05/20 10:05:05;;;;;;;8.10;5.10;;;26.00;99.90;;;;;;4968062;28;20462;-79
2022/05/20 10:07:47;;;;;;;6.57;4.80;;;26.10;99.90;;;;;;4972974;28;20459;-79
2022/05/20 10:10:21;;;;;;;9.20;4.90;;;26.20;99.90;;;;;;4972269;28;20961;-79
2022/05/20 10:12:51;;;;;;;10.97;4.27;;;26.30;99.90;;;;;;4972212;28;20460;-79
2022/05/20 10:15:24;;;;;;;11.13;5.20;;;26.30;99.90;;;;;;4973707;28;20849;-78
2022/05/20 10:18:02;;;;;;;6.23;4.37;;;26.40;99.90;;;;;;4977054;28;20480;-78
2022/05/20 10:20:34;;;;;;;9.33;4.60;;;26.50;99.90;;;;;;4974566;28;20600;-78
2022/05/20 10:23:10;;;;;;;8.43;4.40;;;26.60;99.90;;;;;;4973412;28;20468;-78
2022/05/20 10:25:52;;;;;;;5.10;4.00;;;26.80;99.90;;;;;;4974469;28;20464;-79
2022/05/20 10:34:11;;;;;;;6.40;3.47;;;27.00;99.90;;;;;;4968497;28;20460;-78
2022/05/20 10:36:48;;;;;;;8.43;4.70;;;27.20;99.90;;;;;;4971092;28;20471;-78
2022/05/20 10:39:48;;;;;;;7.03;4.70;;;27.20;99.90;;;;;;4970968;28;21605;-77
2022/05/20 10:42:33;;;;;;;6.87;4.87;;;27.30;99.90;;;;;;4946716;28;20483;-78
2022/05/20 10:51:05;;;;;;;9.37;4.47;;;27.70;99.90;;;;;;4973163;28;20972;-78
2022/05/20 10:53:42;;;;;;;6.97;4.53;;;27.90;99.90;;;;;;4974514;28;20519;-79
2022/05/20 10:56:30;;;;;;;9.30;3.80;;;28.00;99.90;;;;;;4973664;28;20476;-80
2022/05/20 10:59:31;;;;;;;8.90;4.40;;;28.20;99.90;;;;;;4975540;28;20461;-79
2022/05/20 11:02:10;;;;;;;4.70;4.20;;;28.30;99.90;;;;;;4974239;28;20495;-79
2022/05/20 11:04:58;;;;;;;5.67;3.83;;;28.40;99.90;;;;;;4974127;28;20463;-79
2022/05/20 11:07:57;;;;;;;5.97;4.03;;;28.50;99.90;;;;;;4976692;28;20496;-78
2022/05/20 11:10:42;;;;;;;7.03;4.00;;;28.60;99.90;;;;;;4975104;28;20457;-79
2022/05/20 11:13:22;;;;;;;5.27;4.10;;;28.60;99.90;;;;;;4977309;28;20468;-79
2022/05/20 11:16:08;;;;;;;5.93;4.13;;;28.70;99.90;;;;;;4974314;28;20468;-78
2022/05/20 11:19:04;;;;;;;7.90;4.47;;;28.70;99.90;;;;;;4970381;28;20949;-78
2022/05/20 11:21:50;;;;;;;9.10;4.53;;;28.80;99.90;;;;;;4973417;28;20508;-78
2022/05/20 11:24:42;;;;;;;8.77;4.47;;;28.80;99.90;;;;;;4970969;28;20503;-78
2022/05/20 11:27:34;;;;;;;6.77;4.00;;;28.90;99.90;;;;;;4967078;28;20551;-79
2022/05/20 11:30:14;;;;;;;10.13;4.50;;;29.00;99.90;;;;;;4973694;28;21075;-78
2022/05/20 11:33:11;;;;;;;5.33;4.20;;;29.00;99.90;;;;;;4973629;28;20463;-80
2022/05/20 11:35:59;;;;;;;5.23;4.13;;;29.10;99.90;;;;;;4971200;28;20552;-79
2022/05/20 11:39:26;;;;;;;6.23;3.27;;;29.10;99.90;;;;;;4971848;28;20468;-79
2022/05/20 11:42:07;;;;;;;8.13;4.50;;;29.10;99.90;;;;;;4929676;29;20568;-79
2022/05/20 11:45:10;;;;;;;5.80;4.30;;;29.20;99.90;;;;;;4970761;28;20484;-81
2022/05/20 11:48:05;;;;;;;7.70;4.50;;;29.30;99.90;;;;;;4964925;28;20564;-83
2022/05/20 11:51:23;;;;;;;8.33;3.80;;;29.30;99.90;;;;;;4969042;28;20464;-83
2022/05/20 11:53:54;;;;;;;6.30;4.40;;;29.30;99.90;;;;;;4966591;28;20472;-83
2022/05/20 11:56:34;;;;;;;9.33;4.30;;;29.40;99.90;;;;;;4970700;28;20468;-83
2022/05/20 11:59:07;;;;;;;8.13;4.33;;;29.40;99.90;;;;;;4969750;28;20527;-83
2022/05/20 12:01:36;;;;;;;7.13;3.70;;;29.40;99.90;;;;;;4969332;28;20935;-83
2022/05/20 12:04:09;;;;;;;7.43;4.37;;;29.50;99.90;;;;;;4971604;28;20455;-82
2022/05/20 12:06:42;;;;;;;10.43;4.40;;;29.60;99.90;;;;;;4975093;28;20469;-84
2022/05/20 12:09:32;;;;;;;8.50;4.90;;;29.60;99.90;;;;;;4969115;28;20809;-84
2022/05/20 12:12:15;;;;;;;5.63;4.13;;;29.80;99.90;;;;;;4968164;28;20484;-84
2022/05/20 12:15:02;;;;;;;8.40;3.63;;;29.90;99.90;;;;;;4966157;28;20464;-83
2022/05/20 12:17:33;;;;;;;5.23;3.50;;;30.00;99.90;;;;;;4966605;28;20460;-84
2022/05/20 12:26:20;;;;;;;66.93;24.77;;;30.00;99.90;;;;;;4964405;28;20533;-70
2022/05/20 12:28:48;;;;;;;52.37;19.13;;;30.10;99.90;;;;;;4965893;28;20472;-70
2022/05/20 12:31:23;;;;;;;51.70;19.87;;;30.10;99.90;;;;;;4964932;28;21047;-70
2022/05/20 12:33:52;;;;;;;6.10;4.13;;;30.10;99.90;;;;;;4966023;28;20463;-68
2022/05/20 12:36:35;;;;;;;6.33;4.10;;;30.10;99.90;;;;;;4965815;28;21297;-68
2022/05/20 12:39:19;;;;;;;9.83;4.13;;;30.20;99.90;;;;;;4966539;28;20540;-69
2022/05/20 12:42:00;;;;;;;7.93;4.20;;;30.30;99.90;;;;;;4967220;28;20509;-69
2022/05/20 12:44:35;;;;;;;6.70;4.07;;;30.30;99.90;;;;;;4970423;28;20558;-68
2022/05/20 12:47:31;;;;;;;29.60;13.53;;;30.40;99.90;;;;;;4971109;28;20471;-68
2022/05/20 12:50:06;;;;;;;9.97;5.40;;;30.40;99.90;;;;;;4937065;28;20476;-69
2022/05/20 12:52:35;;;;;;;15.20;6.23;;;30.30;99.90;;;;;;4971326;28;20539;-69
2022/05/20 12:55:14;;;;;;;24.40;9.97;;;30.30;99.90;;;;;;4970604;28;20452;-68
2022/05/20 12:57:50;;;;;;;11.23;4.67;;;30.30;99.90;;;;;;4971279;28;20937;-68
2022/05/20 13:00:26;;;;;;;6.20;3.87;;;30.30;99.90;;;;;;4970639;28;20496;-68
2022/05/20 13:02:56;;;;;;;7.53;3.60;;;30.30;99.90;;;;;;4971019;28;20948;-68
2022/05/20 13:05:29;;;;;;;19.40;8.40;;;30.30;99.90;;;;;;4970121;28;20460;-68
2022/05/20 13:07:57;;;;;;;8.83;3.87;;;30.40;99.90;;;;;;4971195;28;20451;-68
2022/05/20 13:10:31;;;;;;;10.03;4.00;;;30.40;99.90;;;;;;4970123;28;20938;-67
2022/05/20 13:13:02;;;;;;;7.97;4.20;;;30.30;99.90;;;;;;4971108;28;20567;-67
2022/05/20 13:15:30;;;;;;;9.83;3.67;;;30.30;99.90;;;;;;4968888;28;20465;-65
2022/05/20 13:18:03;;;;;;;7.53;4.40;;;30.40;99.90;;;;;;4969074;28;20468;-65
2022/05/20 13:20:32;;;;;;;9.57;3.73;;;30.50;99.90;;;;;;4969112;28;20876;-75
2022/05/20 13:23:01;;;;;;;9.77;5.90;;;30.50;99.90;;;;;;4971054;28;20499;-68
2022/05/20 13:25:28;;;;;;;15.77;5.97;;;30.50;99.90;;;;;;4970641;28;20467;-68
2022/05/20 13:27:56;;;;;;;7.03;3.50;;;30.50;99.90;;;;;;4969996;28;20461;-69
2022/05/20 13:30:25;;;;;;;7.47;3.93;;;30.50;99.90;;;;;;4969107;28;20463;-72
2022/05/20 13:33:01;;;;;;;7.20;3.60;;;30.50;99.90;;;;;;4969064;28;20810;-72
2022/05/20 13:35:28;;;;;;;8.23;3.27;;;30.50;99.90;;;;;;4969261;28;20463;-85
2022/05/20 13:37:59;;;;;;;6.53;3.10;;;30.50;99.90;;;;;;4971879;28;20460;-85
2022/05/20 13:40:33;;;;;;;6.33;3.47;;;30.60;99.90;;;;;;4974215;28;20516;-84
2022/05/20 13:43:02;;;;;;;7.67;3.40;;;30.60;99.90;;;;;;4971177;28;20921;-85
2022/05/20 13:51:05;;;;;;;7.60;3.40;;;30.80;99.90;;;;;;4971613;28;20539;-84
2022/05/20 13:53:34;;;;;;;8.40;3.00;;;31.00;99.90;;;;;;4971124;28;20448;-86
2022/05/20 13:56:01;;;;;;;7.30;3.33;;;31.00;99.90;;;;;;4970008;28;20468;-84
2022/05/20 13:58:30;;;;;;;6.77;3.50;;;31.10;99.90;;;;;;4971903;28;20456;-85
2022/05/20 14:01:02;;;;;;;8.73;3.77;;;31.00;99.90;;;;;;4971418;28;20505;-86
2022/05/20 14:03:34;;;;;;;5.80;3.27;;;31.10;99.90;;;;;;4972710;28;20504;-84
2022/05/20 14:06:04;;;;;;;7.47;3.77;;;31.10;99.90;;;;;;4971592;28;20445;-84
2022/05/20 14:08:33;;;;;;;5.33;3.37;;;31.20;99.90;;;;;;4971803;28;20455;-86
2022/05/20 14:11:05;;;;;;;5.60;3.50;;;31.20;99.90;;;;;;4971749;28;20547;-84
2022/05/20 14:13:36;;;;;;;5.50;3.17;;;31.20;99.90;;;;;;4972028;28;20449;-84
2022/05/20 14:16:09;;;;;;;6.70;2.90;;;31.30;99.90;;;;;;4969388;28;20476;-86
2022/05/20 14:18:40;;;;;;;8.97;3.23;;;31.40;99.90;;;;;;4970697;28;20471;-85
2022/05/20 14:21:13;;;;;;;9.57;3.00;;;31.40;99.90;;;;;;4970918;28;21092;-86
2022/05/20 14:23:48;;;;;;;11.50;5.03;;;31.40;99.90;;;;;;4970380;28;20481;-72
2022/05/20 14:26:20;;;;;;;6.57;3.70;;;31.40;99.90;;;;;;4969184;28;20491;-86
2022/05/20 14:28:57;;;;;;;6.77;3.13;;;31.40;99.90;;;;;;4969606;28;20527;-88
2022/05/20 14:31:38;;;;;;;7.13;3.10;;;31.40;99.90;;;;;;4970535;28;20495;-84
2022/05/20 14:34:11;;;;;;;11.73;3.40;;;31.40;99.90;;;;;;4969157;28;20484;-85
2022/05/20 14:36:39;;;;;;;6.37;3.60;;;31.30;99.90;;;;;;4969734;28;20524;-85
2022/05/20 14:39:11;;;;;;;10.93;3.50;;;31.30;99.90;;;;;;4970104;28;20457;-85
2022/05/20 14:41:38;;;;;;;5.60;3.30;;;31.30;99.90;;;;;;4970767;28;20503;-86
2022/05/20 14:44:08;;;;;;;7.20;3.27;;;31.20;99.90;;;;;;4968278;28;20896;-85
2022/05/20 14:49:27;;;;;;;6.30;3.43;;;31.20;99.90;;;;;;4969201;28;20424;-84
2022/05/20 14:51:58;;;;;;;6.17;3.53;;;31.10;99.90;;;;;;4968926;28;20480;-84
2022/05/20 14:54:36;;;;;;;7.57;3.33;;;31.00;99.90;;;;;;4969386;28;20576;-84
2022/05/20 14:57:25;;;;;;;9.83;4.10;;;30.90;99.90;;;;;;4970336;28;20876;-85
2022/05/20 15:00:20;;;;;;;9.57;5.37;;;30.80;99.90;;;;;;4968014;28;20922;-76
2022/05/20 15:02:47;;;;;;;10.77;4.37;;;30.60;99.90;;;;;;4966526;28;21486;-76
2022/05/20 15:05:16;;;;;;;13.60;4.50;;;30.50;99.90;;;;;;4965721;28;20519;-76
2022/05/20 15:07:44;;;;;;;7.40;5.10;;;30.20;99.90;;;;;;4966792;28;20551;-76
2022/05/20 15:10:16;;;;;;;13.90;4.73;;;30.00;99.90;;;;;;4966901;28;20467;-76
2022/05/20 15:12:44;;;;;;;9.83;4.70;;;29.80;99.90;;;;;;4965986;28;20970;-76
2022/05/20 15:15:12;;;;;;;7.27;4.50;;;29.60;99.90;;;;;;4966045;28;21071;-75
2022/05/20 15:18:06;;;;;;;13.43;5.57;;;29.50;99.90;;;;;;4966637;28;20467;-76
2022/05/20 15:20:37;;;;;;;12.77;6.87;;;29.40;99.90;;;;;;4966331;28;21563;-76
2022/05/20 15:23:05;;;;;;;7.50;4.00;;;29.40;99.90;;;;;;4966448;28;20460;-76
2022/05/20 15:25:32;;;;;;;10.60;4.07;;;29.40;99.90;;;;;;4965393;28;20909;-76
2022/05/20 15:27:59;;;;;;;11.83;4.00;;;29.40;99.90;;;;;;4966278;28;21021;-76
2022/05/20 15:30:26;;;;;;;11.10;4.20;;;29.30;99.90;;;;;;4966037;28;20460;-76
2022/05/20 15:35:40;;;;;;;13.10;4.20;;;29.30;99.90;;;;;;4965569;28;20592;-76
2022/05/20 15:38:10;;;;;;;8.20;4.00;;;29.30;99.90;;;;;;4965978;28;20514;-76
2022/05/20 15:40:40;;;;;;;9.80;3.80;;;29.10;99.90;;;;;;4964827;28;20531;-76
2022/05/20 15:43:07;;;;;;;9.00;4.07;;;29.00;99.90;;;;;;4965662;28;20448;-76
2022/05/20 15:45:34;;;;;;;6.83;3.90;;;28.90;99.90;;;;;;4965522;28;20536;-76
2022/05/20 15:48:01;;;;;;;6.07;4.63;;;28.80;99.90;;;;;;4965728;28;20463;-72
2022/05/20 15:50:28;;;;;;;7.37;4.40;;;28.70;99.90;;;;;;4965625;28;20452;-73
2022/05/20 15:53:02;;;;;;;6.50;4.20;;;28.60;99.90;;;;;;4965943;28;20479;-72
2022/05/20 15:55:32;;;;;;;6.83;3.80;;;28.40;99.90;;;;;;4965115;28;20546;-72
2022/05/20 15:58:05;;;;;;;8.60;4.47;;;28.30;99.90;;;;;;4965777;28;20795;-72
2022/05/20 16:00:32;;;;;;;9.00;4.40;;;28.20;99.90;;;;;;4965959;28;20503;-72
2022/05/20 16:03:00;;;;;;;9.93;4.27;;;28.10;99.90;;;;;;4969262;28;20575;-81
2022/05/20 16:05:28;;;;;;;8.57;4.40;;;28.10;99.90;;;;;;4969951;28;20568;-80
2022/05/20 16:08:00;;;;;;;7.37;4.47;;;28.00;99.90;;;;;;4970207;28;20460;-80
2022/05/20 16:10:29;;;;;;;8.80;4.90;;;28.00;99.90;;;;;;4970229;28;20460;-80
2022/05/20 16:12:56;;;;;;;12.50;3.93;;;27.90;99.90;;;;;;4972064;28;20551;-82
2022/05/20 16:15:23;;;;;;;8.40;4.37;;;27.70;99.90;;;;;;4970510;28;20475;-81
2022/05/20 16:17:50;;;;;;;10.37;5.07;;;27.70;99.90;;;;;;4972048;28;20459;-80
2022/05/20 16:20:17;;;;;;;7.40;4.47;;;27.40;99.90;;;;;;4975635;28;20612;-81
2022/05/20 16:22:45;;;;;;;5.47;4.13;;;27.40;99.90;;;;;;4974232;28;20548;-81
2022/05/20 16:25:13;;;;;;;10.47;4.67;;;27.40;99.90;;;;;;4971908;28;20464;-82
2022/05/20 16:27:44;;;;;;;8.00;5.30;;;27.40;99.90;;;;;;4974760;28;20484;-81
2022/05/20 16:30:14;;;;;;;7.50;5.00;;;27.30;99.90;;;;;;4975506;28;20812;-82
2022/05/20 16:32:43;;;;;;;9.47;5.27;;;27.30;99.90;;;;;;4975717;28;20463;-82
2022/05/20 16:35:11;;;;;;;9.07;4.63;;;27.30;99.90;;;;;;4974937;28;20472;-81
2022/05/20 16:37:38;;;;;;;11.20;4.80;;;27.30;99.90;;;;;;4975460;28;20465;-82
2022/05/20 16:40:09;;;;;;;12.60;4.70;;;27.20;99.90;;;;;;4976497;28;20466;-82
2022/05/20 16:42:37;;;;;;;6.73;4.67;;;27.30;99.90;;;;;;4975601;28;21035;-82
2022/05/20 16:45:05;;;;;;;6.20;4.20;;;27.30;99.90;;;;;;4975595;28;20923;-81
2022/05/20 16:47:38;;;;;;;11.57;5.17;;;27.40;99.90;;;;;;4974970;28;20495;-81
2022/05/20 16:50:06;;;;;;;10.60;4.77;;;27.30;99.90;;;;;;4975358;28;20469;-82
2022/05/20 16:52:33;;;;;;;8.10;5.10;;;27.30;99.90;;;;;;4974915;28;20572;-81
2022/05/20 16:55:04;;;;;;;12.10;5.20;;;27.40;99.90;;;;;;4974572;28;20841;-80
2022/05/20 17:03:04;;;;;;;12.47;4.73;;;27.30;99.90;;;;;;4974635;28;21023;-80
2022/05/20 17:05:30;;;;;;;10.67;5.17;;;27.40;99.90;;;;;;4975354;28;20464;-80
2022/05/20 17:07:57;;;;;;;5.63;4.37;;;27.30;99.90;;;;;;4975112;28;20468;-79
2022/05/20 17:10:26;;;;;;;10.83;5.13;;;27.30;99.90;;;;;;4974765;28;20559;-80
2022/05/20 17:12:54;;;;;;;8.13;4.47;;;27.30;99.90;;;;;;4974834;28;20460;-81
2022/05/20 17:15:23;;;;;;;8.60;5.20;;;27.20;99.90;;;;;;4974354;28;20474;-81
2022/05/20 17:17:50;;;;;;;8.37;4.87;;;27.20;99.90;;;;;;4974818;28;20473;-81
2022/05/20 17:20:17;;;;;;;9.77;4.33;;;27.20;99.90;;;;;;4974399;28;20899;-81
2022/05/20 17:25:28;;;;;;;9.93;4.60;;;27.10;99.90;;;;;;4973750;28;20440;-81
2022/05/20 17:27:55;;;;;;;8.00;4.70;;;27.00;99.90;;;;;;4977367;28;20491;-79
2022/05/20 17:30:24;;;;;;;9.80;4.70;;;26.90;99.90;;;;;;4979076;28;20473;-80
2022/05/20 17:32:50;;;;;;;5.83;4.03;;;26.90;99.90;;;;;;4976549;28;20461;-80
2022/05/20 17:35:19;;;;;;;6.50;4.03;;;26.90;99.90;;;;;;4975207;28;20457;-81
2022/05/20 17:37:46;;;;;;;8.23;4.83;;;26.80;99.90;;;;;;4973842;28;20473;-81
2022/05/20 17:40:13;;;;;;;13.67;5.17;;;26.80;99.90;;;;;;4975592;28;21106;-80
2022/05/20 17:42:40;;;;;;;8.63;4.53;;;26.70;99.90;;;;;;4973569;28;20532;-81
2022/05/20 17:45:08;;;;;;;9.23;4.43;;;26.70;99.90;;;;;;4975932;28;20456;-81
2022/05/20 17:47:36;;;;;;;8.03;4.23;;;26.80;99.90;;;;;;4977895;28;21098;-80
2022/05/20 17:50:03;;;;;;;9.33;4.73;;;26.70;99.90;;;;;;4978802;28;20453;-81
2022/05/20 17:52:30;;;;;;;6.97;4.17;;;26.70;99.90;;;;;;4977869;28;20499;-80
2022/05/20 17:54:57;;;;;;;9.40;4.70;;;26.70;99.90;;;;;;4977473;28;20520;-80
2022/05/20 17:57:25;;;;;;;8.00;4.17;;;26.70;99.90;;;;;;4978260;28;20556;-80
2022/05/20 17:59:53;;;;;;;8.37;4.53;;;26.60;99.90;;;;;;4978943;28;20463;-80